sensor_id;sensor_type;location;lat;lon;timestamp;P1;durP1;ratioP1;P2;durP2;ratioP2
77417;SDS011;66490;51.484;0.026;2023-03-03T00:01:25;11.83;;;4.30;;
77417;SDS011;66490;51.484;0.026;2023-03-03T00:03:51;11.48;;;5.40;;
77417;SDS011;66490;51.484;0.026;2023-03-03T00:06:16;9.33;;;5.47;;
77417;SDS011;66490;51.484;0.026;2023-03-03T00:08:41;11.03;;;5.27;;
77417;SDS011;66490;51.484;0.026;2023-03-03T00:11:07;9.10;;;4.30;;
77417;SDS011;66490;51.484;0.026;2023-03-03T00:13:37;10.60;;;5.73;;
77417;SDS011;66490;51.484;0.026;2023-03-03T00:18:36;12.93;;;4.35;;
77417;SDS011;66490;51.484;0.026;2023-03-03T00:21:03;11.17;;;5.17;;
77417;SDS011;66490;51.484;0.026;2023-03-03T00:23:39;10.80;;;4.70;;
77417;SDS011;66490;51.484;0.026;2023-03-03T00:29:01;12.32;;;5.15;;
77417;SDS011;66490;51.484;0.026;2023-03-03T00:33:53;8.97;;;5.17;;
77417;SDS011;66490;51.484;0.026;2023-03-03T00:36:29;10.02;;;5.35;;
77417;SDS011;66490;51.484;0.026;2023-03-03T00:41:44;9.18;;;4.70;;
77417;SDS011;66490;51.484;0.026;2023-03-03T00:46:53;8.82;;;4.63;;
77417;SDS011;66490;51.484;0.026;2023-03-03T00:49:22;10.55;;;4.65;;
77417;SDS011;66490;51.484;0.026;2023-03-03T00:51:49;9.37;;;4.70;;
77417;SDS011;66490;51.484;0.026;2023-03-03T00:54:14;18.08;;;6.20;;
77417;SDS011;66490;51.484;0.026;2023-03-03T00:56:39;9.17;;;4.07;;
77417;SDS011;66490;51.484;0.026;2023-03-03T00:59:05;9.27;;;4.83;;
77417;SDS011;66490;51.484;0.026;2023-03-03T01:01:31;9.30;;;4.97;;
77417;SDS011;66490;51.484;0.026;2023-03-03T01:03:56;8.87;;;4.30;;
77417;SDS011;66490;51.484;0.026;2023-03-03T01:06:22;9.17;;;4.37;;
77417;SDS011;66490;51.484;0.026;2023-03-03T01:08:47;10.40;;;5.20;;
77417;SDS011;66490;51.484;0.026;2023-03-03T01:11:16;10.27;;;5.10;;
77417;SDS011;66490;51.484;0.026;2023-03-03T01:13:44;9.32;;;5.40;;
77417;SDS011;66490;51.484;0.026;2023-03-03T01:16:11;10.65;;;5.38;;
77417;SDS011;66490;51.484;0.026;2023-03-03T01:18:36;10.40;;;4.67;;
77417;SDS011;66490;51.484;0.026;2023-03-03T01:21:02;13.93;;;5.18;;
77417;SDS011;66490;51.484;0.026;2023-03-03T01:23:27;10.13;;;4.73;;
77417;SDS011;66490;51.484;0.026;2023-03-03T01:25:57;11.15;;;4.30;;
77417;SDS011;66490;51.484;0.026;2023-03-03T01:28:23;9.85;;;5.00;;
77417;SDS011;66490;51.484;0.026;2023-03-03T01:30:48;9.73;;;4.77;;
77417;SDS011;66490;51.484;0.026;2023-03-03T01:33:15;12.27;;;5.07;;
77417;SDS011;66490;51.484;0.026;2023-03-03T01:35:43;10.63;;;4.87;;
77417;SDS011;66490;51.484;0.026;2023-03-03T01:38:09;8.00;;;4.43;;
77417;SDS011;66490;51.484;0.026;2023-03-03T01:40:34;10.97;;;4.77;;
77417;SDS011;66490;51.484;0.026;2023-03-03T01:43:00;9.03;;;4.83;;
77417;SDS011;66490;51.484;0.026;2023-03-03T01:45:26;8.93;;;5.20;;
77417;SDS011;66490;51.484;0.026;2023-03-03T01:47:57;13.57;;;4.75;;
77417;SDS011;66490;51.484;0.026;2023-03-03T01:52:51;10.75;;;5.55;;
77417;SDS011;66490;51.484;0.026;2023-03-03T01:55:19;11.67;;;5.70;;
77417;SDS011;66490;51.484;0.026;2023-03-03T01:57:53;9.27;;;4.32;;
77417;SDS011;66490;51.484;0.026;2023-03-03T02:00:22;13.15;;;5.03;;
77417;SDS011;66490;51.484;0.026;2023-03-03T02:02:48;11.43;;;5.13;;
77417;SDS011;66490;51.484;0.026;2023-03-03T02:05:13;14.37;;;5.27;;
77417;SDS011;66490;51.484;0.026;2023-03-03T02:07:38;11.43;;;5.47;;
77417;SDS011;66490;51.484;0.026;2023-03-03T02:12:43;10.07;;;5.00;;
77417;SDS011;66490;51.484;0.026;2023-03-03T02:15:16;10.48;;;5.15;;
77417;SDS011;66490;51.484;0.026;2023-03-03T02:17:42;11.23;;;5.78;;
77417;SDS011;66490;51.484;0.026;2023-03-03T02:20:42;17.00;;;5.90;;
77417;SDS011;66490;51.484;0.026;2023-03-03T02:28:16;10.48;;;5.07;;
77417;SDS011;66490;51.484;0.026;2023-03-03T02:30:41;11.07;;;5.60;;
77417;SDS011;66490;51.484;0.026;2023-03-03T02:33:06;12.67;;;6.13;;
77417;SDS011;66490;51.484;0.026;2023-03-03T02:35:33;10.47;;;4.80;;
77417;SDS011;66490;51.484;0.026;2023-03-03T02:38:11;12.25;;;5.07;;
77417;SDS011;66490;51.484;0.026;2023-03-03T02:40:39;10.27;;;5.95;;
77417;SDS011;66490;51.484;0.026;2023-03-03T02:43:06;12.15;;;6.38;;
77417;SDS011;66490;51.484;0.026;2023-03-03T02:45:40;10.45;;;6.07;;
77417;SDS011;66490;51.484;0.026;2023-03-03T02:48:05;13.17;;;5.63;;
77417;SDS011;66490;51.484;0.026;2023-03-03T02:50:31;12.27;;;5.60;;
77417;SDS011;66490;51.484;0.026;2023-03-03T02:52:56;11.67;;;5.53;;
77417;SDS011;66490;51.484;0.026;2023-03-03T02:55:21;11.17;;;5.47;;
77417;SDS011;66490;51.484;0.026;2023-03-03T02:57:47;13.30;;;5.77;;
77417;SDS011;66490;51.484;0.026;2023-03-03T03:00:12;11.20;;;5.07;;
77417;SDS011;66490;51.484;0.026;2023-03-03T03:02:38;14.13;;;6.03;;
77417;SDS011;66490;51.484;0.026;2023-03-03T03:05:03;11.48;;;5.82;;
77417;SDS011;66490;51.484;0.026;2023-03-03T03:07:30;11.67;;;5.90;;
77417;SDS011;66490;51.484;0.026;2023-03-03T03:09:55;11.30;;;5.95;;
77417;SDS011;66490;51.484;0.026;2023-03-03T03:12:21;10.83;;;4.90;;
77417;SDS011;66490;51.484;0.026;2023-03-03T03:14:46;14.30;;;5.83;;
77417;SDS011;66490;51.484;0.026;2023-03-03T03:17:12;11.38;;;5.15;;
77417;SDS011;66490;51.484;0.026;2023-03-03T03:19:37;9.90;;;4.83;;
77417;SDS011;66490;51.484;0.026;2023-03-03T03:22:03;11.03;;;6.27;;
77417;SDS011;66490;51.484;0.026;2023-03-03T03:24:28;11.57;;;7.03;;
77417;SDS011;66490;51.484;0.026;2023-03-03T03:26:53;10.83;;;6.23;;
77417;SDS011;66490;51.484;0.026;2023-03-03T03:29:19;10.93;;;6.03;;
77417;SDS011;66490;51.484;0.026;2023-03-03T03:31:44;13.77;;;6.30;;
77417;SDS011;66490;51.484;0.026;2023-03-03T03:34:09;11.37;;;6.00;;
77417;SDS011;66490;51.484;0.026;2023-03-03T03:36:35;11.77;;;6.27;;
77417;SDS011;66490;51.484;0.026;2023-03-03T03:39:02;14.40;;;6.18;;
77417;SDS011;66490;51.484;0.026;2023-03-03T03:41:30;14.63;;;5.87;;
77417;SDS011;66490;51.484;0.026;2023-03-03T03:43:56;11.18;;;6.13;;
77417;SDS011;66490;51.484;0.026;2023-03-03T03:46:27;10.85;;;6.38;;
77417;SDS011;66490;51.484;0.026;2023-03-03T03:48:52;15.53;;;6.53;;
77417;SDS011;66490;51.484;0.026;2023-03-03T03:51:18;10.07;;;5.67;;
77417;SDS011;66490;51.484;0.026;2023-03-03T03:53:43;13.03;;;6.10;;
77417;SDS011;66490;51.484;0.026;2023-03-03T03:56:09;11.88;;;6.13;;
77417;SDS011;66490;51.484;0.026;2023-03-03T03:58:35;13.37;;;5.70;;
77417;SDS011;66490;51.484;0.026;2023-03-03T04:01:01;9.17;;;5.57;;
77417;SDS011;66490;51.484;0.026;2023-03-03T04:03:27;10.77;;;5.88;;
77417;SDS011;66490;51.484;0.026;2023-03-03T04:05:55;11.88;;;6.53;;
77417;SDS011;66490;51.484;0.026;2023-03-03T04:08:20;13.30;;;5.03;;
77417;SDS011;66490;51.484;0.026;2023-03-03T04:10:46;16.33;;;6.07;;
77417;SDS011;66490;51.484;0.026;2023-03-03T04:13:11;10.50;;;5.70;;
77417;SDS011;66490;51.484;0.026;2023-03-03T04:15:36;11.20;;;5.53;;
77417;SDS011;66490;51.484;0.026;2023-03-03T04:18:02;13.17;;;5.60;;
77417;SDS011;66490;51.484;0.026;2023-03-03T04:20:27;8.57;;;4.93;;
77417;SDS011;66490;51.484;0.026;2023-03-03T04:22:53;11.27;;;5.77;;
77417;SDS011;66490;51.484;0.026;2023-03-03T04:25:18;11.93;;;5.50;;
77417;SDS011;66490;51.484;0.026;2023-03-03T04:27:44;10.65;;;5.03;;
77417;SDS011;66490;51.484;0.026;2023-03-03T04:30:09;10.23;;;5.43;;
77417;SDS011;66490;51.484;0.026;2023-03-03T04:32:35;10.15;;;5.75;;
77417;SDS011;66490;51.484;0.026;2023-03-03T04:35:00;10.17;;;4.73;;
77417;SDS011;66490;51.484;0.026;2023-03-03T04:37:26;9.80;;;4.97;;
77417;SDS011;66490;51.484;0.026;2023-03-03T04:39:51;9.93;;;5.80;;
77417;SDS011;66490;51.484;0.026;2023-03-03T04:42:17;9.98;;;5.55;;
77417;SDS011;66490;51.484;0.026;2023-03-03T04:44:45;10.23;;;5.20;;
77417;SDS011;66490;51.484;0.026;2023-03-03T04:47:10;9.50;;;4.60;;
77417;SDS011;66490;51.484;0.026;2023-03-03T04:49:36;12.37;;;4.73;;
77417;SDS011;66490;51.484;0.026;2023-03-03T04:52:02;12.38;;;5.47;;
77417;SDS011;66490;51.484;0.026;2023-03-03T04:54:28;11.23;;;5.33;;
77417;SDS011;66490;51.484;0.026;2023-03-03T04:56:53;11.83;;;5.07;;
77417;SDS011;66490;51.484;0.026;2023-03-03T04:59:21;9.87;;;4.63;;
77417;SDS011;66490;51.484;0.026;2023-03-03T05:01:48;9.70;;;4.55;;
77417;SDS011;66490;51.484;0.026;2023-03-03T05:04:15;10.15;;;5.65;;
77417;SDS011;66490;51.484;0.026;2023-03-03T05:06:40;12.57;;;5.47;;
77417;SDS011;66490;51.484;0.026;2023-03-03T05:09:05;10.63;;;5.30;;
77417;SDS011;66490;51.484;0.026;2023-03-03T05:11:31;13.40;;;5.35;;
77417;SDS011;66490;51.484;0.026;2023-03-03T05:13:56;11.87;;;5.00;;
77417;SDS011;66490;51.484;0.026;2023-03-03T05:16:22;7.83;;;4.87;;
77417;SDS011;66490;51.484;0.026;2023-03-03T05:18:47;10.10;;;4.43;;
77417;SDS011;66490;51.484;0.026;2023-03-03T05:21:12;8.93;;;4.30;;
77417;SDS011;66490;51.484;0.026;2023-03-03T05:23:38;11.77;;;4.93;;
77417;SDS011;66490;51.484;0.026;2023-03-03T05:26:03;9.67;;;4.53;;
77417;SDS011;66490;51.484;0.026;2023-03-03T05:28:29;10.47;;;4.70;;
77417;SDS011;66490;51.484;0.026;2023-03-03T05:30:54;8.43;;;3.77;;
77417;SDS011;66490;51.484;0.026;2023-03-03T05:33:20;11.27;;;3.87;;
77417;SDS011;66490;51.484;0.026;2023-03-03T05:35:45;8.67;;;4.13;;
77417;SDS011;66490;51.484;0.026;2023-03-03T05:38:11;10.53;;;4.20;;
77417;SDS011;66490;51.484;0.026;2023-03-03T05:40:36;9.93;;;3.90;;
77417;SDS011;66490;51.484;0.026;2023-03-03T05:43:01;11.18;;;4.57;;
77417;SDS011;66490;51.484;0.026;2023-03-03T05:45:27;9.00;;;3.70;;
77417;SDS011;66490;51.484;0.026;2023-03-03T05:47:52;9.00;;;3.40;;
77417;SDS011;66490;51.484;0.026;2023-03-03T05:50:19;9.98;;;4.25;;
77417;SDS011;66490;51.484;0.026;2023-03-03T05:52:48;11.17;;;4.40;;
77417;SDS011;66490;51.484;0.026;2023-03-03T05:55:14;9.90;;;3.90;;
77417;SDS011;66490;51.484;0.026;2023-03-03T05:57:39;10.97;;;4.30;;
77417;SDS011;66490;51.484;0.026;2023-03-03T06:00:05;13.02;;;4.53;;
77417;SDS011;66490;51.484;0.026;2023-03-03T06:02:30;11.37;;;3.90;;
77417;SDS011;66490;51.484;0.026;2023-03-03T06:04:56;8.88;;;4.28;;
77417;SDS011;66490;51.484;0.026;2023-03-03T06:07:21;8.80;;;4.23;;
77417;SDS011;66490;51.484;0.026;2023-03-03T06:09:47;9.77;;;4.13;;
77417;SDS011;66490;51.484;0.026;2023-03-03T06:12:12;10.63;;;3.97;;
77417;SDS011;66490;51.484;0.026;2023-03-03T06:14:37;9.63;;;4.13;;
77417;SDS011;66490;51.484;0.026;2023-03-03T06:17:03;11.13;;;4.60;;
77417;SDS011;66490;51.484;0.026;2023-03-03T06:19:28;10.07;;;4.93;;
77417;SDS011;66490;51.484;0.026;2023-03-03T06:21:53;9.40;;;4.87;;
77417;SDS011;66490;51.484;0.026;2023-03-03T06:24:19;10.90;;;4.50;;
77417;SDS011;66490;51.484;0.026;2023-03-03T06:26:44;9.50;;;3.93;;
77417;SDS011;66490;51.484;0.026;2023-03-03T06:29:09;12.50;;;4.60;;
77417;SDS011;66490;51.484;0.026;2023-03-03T06:31:35;9.80;;;4.03;;
77417;SDS011;66490;51.484;0.026;2023-03-03T06:34:03;8.38;;;3.60;;
77417;SDS011;66490;51.484;0.026;2023-03-03T06:36:28;8.40;;;3.85;;
77417;SDS011;66490;51.484;0.026;2023-03-03T06:38:53;9.43;;;3.83;;
77417;SDS011;66490;51.484;0.026;2023-03-03T06:41:19;7.67;;;3.27;;
77417;SDS011;66490;51.484;0.026;2023-03-03T06:43:44;7.13;;;4.13;;
77417;SDS011;66490;51.484;0.026;2023-03-03T06:46:10;8.63;;;4.23;;
77417;SDS011;66490;51.484;0.026;2023-03-03T06:48:35;9.75;;;4.20;;
77417;SDS011;66490;51.484;0.026;2023-03-03T06:51:01;12.37;;;4.33;;
77417;SDS011;66490;51.484;0.026;2023-03-03T06:53:27;12.97;;;3.80;;
77417;SDS011;66490;51.484;0.026;2023-03-03T06:55:56;10.05;;;4.60;;
77417;SDS011;66490;51.484;0.026;2023-03-03T06:58:22;11.35;;;3.88;;
77417;SDS011;66490;51.484;0.026;2023-03-03T07:00:57;9.17;;;4.47;;
77417;SDS011;66490;51.484;0.026;2023-03-03T07:03:23;8.50;;;4.80;;
77417;SDS011;66490;51.484;0.026;2023-03-03T07:05:49;8.73;;;3.63;;
77417;SDS011;66490;51.484;0.026;2023-03-03T07:08:20;12.27;;;3.92;;
77417;SDS011;66490;51.484;0.026;2023-03-03T07:10:46;10.55;;;4.68;;
77417;SDS011;66490;51.484;0.026;2023-03-03T07:13:19;15.17;;;5.00;;
77417;SDS011;66490;51.484;0.026;2023-03-03T07:15:45;14.10;;;4.63;;
77417;SDS011;66490;51.484;0.026;2023-03-03T07:18:56;10.98;;;4.10;;
77417;SDS011;66490;51.484;0.026;2023-03-03T07:20:57;9.18;;;4.05;;
77417;SDS011;66490;51.484;0.026;2023-03-03T07:23:55;10.47;;;4.83;;
77417;SDS011;66490;51.484;0.026;2023-03-03T07:26:15;15.05;;;4.40;;
77417;SDS011;66490;51.484;0.026;2023-03-03T07:28:41;10.73;;;3.60;;
77417;SDS011;66490;51.484;0.026;2023-03-03T07:31:27;12.85;;;4.47;;
77417;SDS011;66490;51.484;0.026;2023-03-03T07:33:53;15.05;;;4.22;;
77417;SDS011;66490;51.484;0.026;2023-03-03T07:36:27;10.93;;;3.63;;
77417;SDS011;66490;51.484;0.026;2023-03-03T07:38:54;9.57;;;4.25;;
77417;SDS011;66490;51.484;0.026;2023-03-03T07:41:19;13.38;;;3.53;;
77417;SDS011;66490;51.484;0.026;2023-03-03T07:43:51;9.07;;;3.28;;
77417;SDS011;66490;51.484;0.026;2023-03-03T07:48:47;12.07;;;3.10;;
77417;SDS011;66490;51.484;0.026;2023-03-03T07:53:39;8.70;;;3.80;;
77417;SDS011;66490;51.484;0.026;2023-03-03T07:56:14;8.07;;;3.80;;
77417;SDS011;66490;51.484;0.026;2023-03-03T07:58:41;7.68;;;4.20;;
77417;SDS011;66490;51.484;0.026;2023-03-03T08:03:47;8.80;;;4.03;;
77417;SDS011;66490;51.484;0.026;2023-03-03T08:08:53;9.57;;;3.43;;
77417;SDS011;66490;51.484;0.026;2023-03-03T08:11:19;10.57;;;4.00;;
77417;SDS011;66490;51.484;0.026;2023-03-03T08:13:44;13.50;;;5.17;;
77417;SDS011;66490;51.484;0.026;2023-03-03T08:18:36;10.40;;;3.67;;
77417;SDS011;66490;51.484;0.026;2023-03-03T08:21:23;10.15;;;4.35;;
77417;SDS011;66490;51.484;0.026;2023-03-03T08:23:48;8.65;;;3.95;;
77417;SDS011;66490;51.484;0.026;2023-03-03T08:26:15;7.50;;;3.40;;
77417;SDS011;66490;51.484;0.026;2023-03-03T08:28:41;10.70;;;3.47;;
77417;SDS011;66490;51.484;0.026;2023-03-03T08:31:07;11.03;;;4.07;;
77417;SDS011;66490;51.484;0.026;2023-03-03T08:33:32;8.67;;;3.73;;
77417;SDS011;66490;51.484;0.026;2023-03-03T08:36:00;8.60;;;3.47;;
77417;SDS011;66490;51.484;0.026;2023-03-03T08:38:26;10.50;;;3.93;;
77417;SDS011;66490;51.484;0.026;2023-03-03T08:40:51;9.87;;;4.10;;
77417;SDS011;66490;51.484;0.026;2023-03-03T08:43:16;10.87;;;4.63;;
77417;SDS011;66490;51.484;0.026;2023-03-03T08:45:46;9.73;;;4.28;;
77417;SDS011;66490;51.484;0.026;2023-03-03T08:48:12;9.63;;;4.05;;
77417;SDS011;66490;51.484;0.026;2023-03-03T08:50:37;15.80;;;4.00;;
77417;SDS011;66490;51.484;0.026;2023-03-03T08:53:03;9.63;;;5.00;;
77417;SDS011;66490;51.484;0.026;2023-03-03T08:55:28;10.80;;;4.70;;
77417;SDS011;66490;51.484;0.026;2023-03-03T08:57:54;9.67;;;4.40;;
77417;SDS011;66490;51.484;0.026;2023-03-03T09:00:19;9.70;;;4.00;;
77417;SDS011;66490;51.484;0.026;2023-03-03T09:02:45;7.40;;;4.10;;
77417;SDS011;66490;51.484;0.026;2023-03-03T09:05:10;8.50;;;3.73;;
77417;SDS011;66490;51.484;0.026;2023-03-03T09:07:36;8.33;;;3.40;;
77417;SDS011;66490;51.484;0.026;2023-03-03T09:10:02;8.33;;;4.53;;
77417;SDS011;66490;51.484;0.026;2023-03-03T09:12:35;10.05;;;3.70;;
77417;SDS011;66490;51.484;0.026;2023-03-03T09:15:13;9.45;;;3.97;;
77417;SDS011;66490;51.484;0.026;2023-03-03T09:17:39;11.52;;;4.03;;
77417;SDS011;66490;51.484;0.026;2023-03-03T09:22:45;11.40;;;3.80;;
77417;SDS011;66490;51.484;0.026;2023-03-03T09:25:19;9.63;;;3.37;;
77417;SDS011;66490;51.484;0.026;2023-03-03T09:27:46;8.83;;;3.37;;
77417;SDS011;66490;51.484;0.026;2023-03-03T09:32:40;10.83;;;2.80;;
77417;SDS011;66490;51.484;0.026;2023-03-03T09:37:51;17.02;;;3.95;;
77417;SDS011;66490;51.484;0.026;2023-03-03T09:43:03;10.57;;;3.58;;
77417;SDS011;66490;51.484;0.026;2023-03-03T09:51:22;20.23;;;4.22;;
77417;SDS011;66490;51.484;0.026;2023-03-03T09:53:53;8.35;;;2.75;;
77417;SDS011;66490;51.484;0.026;2023-03-03T10:04:00;7.65;;;3.40;;
77417;SDS011;66490;51.484;0.026;2023-03-03T10:06:33;13.80;;;2.93;;
77417;SDS011;66490;51.484;0.026;2023-03-03T10:09:09;9.57;;;3.20;;
77417;SDS011;66490;51.484;0.026;2023-03-03T10:17:00;6.17;;;2.70;;
77417;SDS011;66490;51.484;0.026;2023-03-03T10:22:12;7.75;;;3.00;;
77417;SDS011;66490;51.484;0.026;2023-03-03T10:29:43;7.85;;;3.05;;
77417;SDS011;66490;51.484;0.026;2023-03-03T10:38:30;17.57;;;3.93;;
77417;SDS011;66490;51.484;0.026;2023-03-03T10:40:54;8.25;;;3.25;;
77417;SDS011;66490;51.484;0.026;2023-03-03T10:48:48;6.13;;;3.13;;
77417;SDS011;66490;51.484;0.026;2023-03-03T10:56:26;9.20;;;3.15;;
77417;SDS011;66490;51.484;0.026;2023-03-03T10:59:00;10.30;;;3.57;;
77417;SDS011;66490;51.484;0.026;2023-03-03T11:04:11;10.02;;;3.83;;
77417;SDS011;66490;51.484;0.026;2023-03-03T11:11:52;11.83;;;3.17;;
77417;SDS011;66490;51.484;0.026;2023-03-03T11:16:58;13.17;;;3.47;;
77417;SDS011;66490;51.484;0.026;2023-03-03T11:34:51;9.23;;;3.70;;
77417;SDS011;66490;51.484;0.026;2023-03-03T11:39:49;9.32;;;3.05;;
77417;SDS011;66490;51.484;0.026;2023-03-03T11:42:23;6.90;;;2.35;;
77417;SDS011;66490;51.484;0.026;2023-03-03T11:44:56;12.63;;;2.42;;
77417;SDS011;66490;51.484;0.026;2023-03-03T11:47:28;9.77;;;2.40;;
77417;SDS011;66490;51.484;0.026;2023-03-03T11:50:15;5.22;;;2.28;;
77417;SDS011;66490;51.484;0.026;2023-03-03T11:55:14;3.47;;;1.50;;
77417;SDS011;66490;51.484;0.026;2023-03-03T12:00:21;6.55;;;2.05;;
77417;SDS011;66490;51.484;0.026;2023-03-03T12:03:01;6.27;;;1.67;;
77417;SDS011;66490;51.484;0.026;2023-03-03T12:11:07;3.00;;;0.90;;
77417;SDS011;66490;51.484;0.026;2023-03-03T12:21:35;4.33;;;1.77;;
77417;SDS011;66490;51.484;0.026;2023-03-03T12:29:26;5.35;;;2.00;;
77417;SDS011;66490;51.484;0.026;2023-03-03T12:31:59;4.77;;;1.57;;
77417;SDS011;66490;51.484;0.026;2023-03-03T12:34:32;2.85;;;1.65;;
77417;SDS011;66490;51.484;0.026;2023-03-03T12:37:02;4.82;;;1.48;;
77417;SDS011;66490;51.484;0.026;2023-03-03T12:54:55;5.00;;;1.55;;
77417;SDS011;66490;51.484;0.026;2023-03-03T13:07:15;2.13;;;0.70;;
77417;SDS011;66490;51.484;0.026;2023-03-03T13:10:05;2.67;;;1.10;;
77417;SDS011;66490;51.484;0.026;2023-03-03T13:15:14;2.50;;;0.80;;
77417;SDS011;66490;51.484;0.026;2023-03-03T13:26:03;4.10;;;1.40;;
77417;SDS011;66490;51.484;0.026;2023-03-03T13:28:33;4.25;;;1.60;;
77417;SDS011;66490;51.484;0.026;2023-03-03T13:33:35;3.45;;;1.67;;
77417;SDS011;66490;51.484;0.026;2023-03-03T13:36:02;3.10;;;1.73;;
77417;SDS011;66490;51.484;0.026;2023-03-03T13:38:34;2.17;;;1.10;;
77417;SDS011;66490;51.484;0.026;2023-03-03T13:41:06;4.00;;;1.90;;
77417;SDS011;66490;51.484;0.026;2023-03-03T13:43:34;5.75;;;1.90;;
77417;SDS011;66490;51.484;0.026;2023-03-03T13:46:05;4.78;;;1.73;;
77417;SDS011;66490;51.484;0.026;2023-03-03T13:53:31;6.03;;;2.33;;
77417;SDS011;66490;51.484;0.026;2023-03-03T13:58:34;4.35;;;1.75;;
77417;SDS011;66490;51.484;0.026;2023-03-03T14:03:44;4.00;;;1.17;;
77417;SDS011;66490;51.484;0.026;2023-03-03T14:06:22;7.43;;;1.45;;
77417;SDS011;66490;51.484;0.026;2023-03-03T14:11:23;3.30;;;1.45;;
77417;SDS011;66490;51.484;0.026;2023-03-03T14:16:28;3.70;;;1.30;;
77417;SDS011;66490;51.484;0.026;2023-03-03T14:18:57;3.87;;;1.37;;
77417;SDS011;66490;51.484;0.026;2023-03-03T14:21:26;4.90;;;1.52;;
77417;SDS011;66490;51.484;0.026;2023-03-03T14:23:54;5.43;;;1.45;;
77417;SDS011;66490;51.484;0.026;2023-03-03T14:26:23;4.70;;;1.13;;
77417;SDS011;66490;51.484;0.026;2023-03-03T14:28:49;6.17;;;2.13;;
77417;SDS011;66490;51.484;0.026;2023-03-03T14:31:21;6.35;;;1.13;;
77417;SDS011;66490;51.484;0.026;2023-03-03T14:34:00;3.38;;;0.80;;
77417;SDS011;66490;51.484;0.026;2023-03-03T14:36:27;2.55;;;1.38;;
77417;SDS011;66490;51.484;0.026;2023-03-03T14:38:53;3.57;;;0.80;;
77417;SDS011;66490;51.484;0.026;2023-03-03T14:41:21;2.45;;;1.10;;
77417;SDS011;66490;51.484;0.026;2023-03-03T14:46:32;3.17;;;1.17;;
77417;SDS011;66490;51.484;0.026;2023-03-03T14:48:59;5.17;;;1.80;;
77417;SDS011;66490;51.484;0.026;2023-03-03T14:51:29;2.58;;;1.50;;
77417;SDS011;66490;51.484;0.026;2023-03-03T14:53:56;3.47;;;1.70;;
77417;SDS011;66490;51.484;0.026;2023-03-03T14:56:29;5.32;;;1.15;;
77417;SDS011;66490;51.484;0.026;2023-03-03T15:01:41;4.27;;;1.60;;
77417;SDS011;66490;51.484;0.026;2023-03-03T15:06:45;4.80;;;1.98;;
77417;SDS011;66490;51.484;0.026;2023-03-03T15:09:39;5.37;;;2.03;;
77417;SDS011;66490;51.484;0.026;2023-03-03T15:15:01;6.45;;;1.38;;
77417;SDS011;66490;51.484;0.026;2023-03-03T15:22:49;2.80;;;1.10;;
77417;SDS011;66490;51.484;0.026;2023-03-03T15:25:31;6.30;;;2.17;;
77417;SDS011;66490;51.484;0.026;2023-03-03T15:28:12;4.53;;;1.42;;
77417;SDS011;66490;51.484;0.026;2023-03-03T15:33:59;5.90;;;2.28;;
77417;SDS011;66490;51.484;0.026;2023-03-03T15:36:15;4.80;;;1.20;;
77417;SDS011;66490;51.484;0.026;2023-03-03T15:49:38;3.33;;;1.37;;
77417;SDS011;66490;51.484;0.026;2023-03-03T15:52:29;3.67;;;0.77;;
77417;SDS011;66490;51.484;0.026;2023-03-03T16:00:02;4.07;;;1.83;;
77417;SDS011;66490;51.484;0.026;2023-03-03T16:02:49;6.70;;;1.55;;
77417;SDS011;66490;51.484;0.026;2023-03-03T16:07:57;3.42;;;1.45;;
77417;SDS011;66490;51.484;0.026;2023-03-03T16:13:29;3.22;;;1.88;;
77417;SDS011;66490;51.484;0.026;2023-03-03T16:18:24;4.30;;;1.83;;
77417;SDS011;66490;51.484;0.026;2023-03-03T16:23:33;2.65;;;1.75;;
77417;SDS011;66490;51.484;0.026;2023-03-03T16:28:32;4.73;;;1.57;;
77417;SDS011;66490;51.484;0.026;2023-03-03T16:31:10;7.10;;;1.65;;
77417;SDS011;66490;51.484;0.026;2023-03-03T16:41:03;3.13;;;1.13;;
77417;SDS011;66490;51.484;0.026;2023-03-03T16:45:59;3.23;;;1.70;;
77417;SDS011;66490;51.484;0.026;2023-03-03T16:56:28;4.78;;;1.08;;
77417;SDS011;66490;51.484;0.026;2023-03-03T17:01:48;4.15;;;1.45;;
77417;SDS011;66490;51.484;0.026;2023-03-03T17:04:33;4.47;;;1.33;;
77417;SDS011;66490;51.484;0.026;2023-03-03T17:07:21;6.47;;;1.97;;
77417;SDS011;66490;51.484;0.026;2023-03-03T17:12:37;4.18;;;1.50;;
77417;SDS011;66490;51.484;0.026;2023-03-03T17:18:25;3.08;;;1.48;;
77417;SDS011;66490;51.484;0.026;2023-03-03T17:20:23;2.93;;;1.53;;
77417;SDS011;66490;51.484;0.026;2023-03-03T17:23:12;2.85;;;1.55;;
77417;SDS011;66490;51.484;0.026;2023-03-03T17:28:24;5.45;;;1.90;;
77417;SDS011;66490;51.484;0.026;2023-03-03T17:30:59;4.68;;;1.45;;
77417;SDS011;66490;51.484;0.026;2023-03-03T17:33:37;4.93;;;1.47;;
77417;SDS011;66490;51.484;0.026;2023-03-03T17:36:15;3.58;;;1.60;;
77417;SDS011;66490;51.484;0.026;2023-03-03T17:44:35;3.72;;;1.35;;
77417;SDS011;66490;51.484;0.026;2023-03-03T17:47:10;4.77;;;1.50;;
77417;SDS011;66490;51.484;0.026;2023-03-03T17:52:15;5.50;;;1.40;;
77417;SDS011;66490;51.484;0.026;2023-03-03T18:15:22;5.50;;;1.67;;
77417;SDS011;66490;51.484;0.026;2023-03-03T18:18:17;4.65;;;1.50;;
77417;SDS011;66490;51.484;0.026;2023-03-03T18:21:03;5.82;;;2.13;;
77417;SDS011;66490;51.484;0.026;2023-03-03T18:23:32;6.05;;;1.73;;
77417;SDS011;66490;51.484;0.026;2023-03-03T18:26:00;9.07;;;3.10;;
77417;SDS011;66490;51.484;0.026;2023-03-03T18:29:26;6.47;;;2.37;;
77417;SDS011;66490;51.484;0.026;2023-03-03T18:38:56;5.72;;;2.17;;
77417;SDS011;66490;51.484;0.026;2023-03-03T18:41:24;4.00;;;2.08;;
77417;SDS011;66490;51.484;0.026;2023-03-03T18:43:54;4.93;;;2.05;;
77417;SDS011;66490;51.484;0.026;2023-03-03T18:51:52;6.45;;;2.55;;
77417;SDS011;66490;51.484;0.026;2023-03-03T19:01:54;9.30;;;2.47;;
77417;SDS011;66490;51.484;0.026;2023-03-03T19:04:34;9.97;;;2.70;;
77417;SDS011;66490;51.484;0.026;2023-03-03T19:07:23;9.63;;;2.35;;
77417;SDS011;66490;51.484;0.026;2023-03-03T19:10:01;6.57;;;2.50;;
77417;SDS011;66490;51.484;0.026;2023-03-03T19:28:46;8.50;;;3.53;;
77417;SDS011;66490;51.484;0.026;2023-03-03T19:31:23;6.63;;;2.83;;
77417;SDS011;66490;51.484;0.026;2023-03-03T19:33:54;8.40;;;2.85;;
77417;SDS011;66490;51.484;0.026;2023-03-03T20:05:19;7.63;;;2.92;;
77417;SDS011;66490;51.484;0.026;2023-03-03T20:13:17;7.13;;;2.50;;
77417;SDS011;66490;51.484;0.026;2023-03-03T20:20:53;7.25;;;1.98;;
77417;SDS011;66490;51.484;0.026;2023-03-03T20:23:22;7.28;;;2.38;;
77417;SDS011;66490;51.484;0.026;2023-03-03T20:36:32;13.10;;;3.22;;
77417;SDS011;66490;51.484;0.026;2023-03-03T20:39:09;8.73;;;3.35;;
77417;SDS011;66490;51.484;0.026;2023-03-03T20:41:42;12.40;;;2.70;;
77417;SDS011;66490;51.484;0.026;2023-03-03T20:44:14;7.13;;;2.50;;
77417;SDS011;66490;51.484;0.026;2023-03-03T20:59:20;11.97;;;2.10;;
77417;SDS011;66490;51.484;0.026;2023-03-03T21:01:52;7.70;;;1.77;;
77417;SDS011;66490;51.484;0.026;2023-03-03T21:04:21;6.50;;;2.20;;
77417;SDS011;66490;51.484;0.026;2023-03-03T21:06:48;9.40;;;2.40;;
77417;SDS011;66490;51.484;0.026;2023-03-03T21:09:20;8.23;;;2.13;;
77417;SDS011;66490;51.484;0.026;2023-03-03T21:11:46;8.95;;;2.53;;
77417;SDS011;66490;51.484;0.026;2023-03-03T21:14:28;9.00;;;1.80;;
77417;SDS011;66490;51.484;0.026;2023-03-03T21:16:55;8.88;;;2.35;;
77417;SDS011;66490;51.484;0.026;2023-03-03T21:21:52;7.90;;;2.20;;
77417;SDS011;66490;51.484;0.026;2023-03-03T21:24:18;8.23;;;2.90;;
77417;SDS011;66490;51.484;0.026;2023-03-03T21:26:54;11.00;;;2.35;;
77417;SDS011;66490;51.484;0.026;2023-03-03T21:31:46;12.03;;;2.40;;
77417;SDS011;66490;51.484;0.026;2023-03-03T21:34:22;13.50;;;2.27;;
77417;SDS011;66490;51.484;0.026;2023-03-03T21:36:48;8.48;;;2.95;;
77417;SDS011;66490;51.484;0.026;2023-03-03T21:39:24;10.65;;;2.55;;
77417;SDS011;66490;51.484;0.026;2023-03-03T21:47:06;12.30;;;1.90;;